createdAt,value
2022-11-21T00:01:58.141Z,99629.00
2022-11-21T00:04:42.725Z,99620.00
2022-11-21T00:07:11.051Z,99592.00
2022-11-21T00:09:47.511Z,99601.00
2022-11-21T00:12:22.757Z,99603.00
2022-11-21T00:14:55.538Z,99588.00
2022-11-21T00:17:43.599Z,99599.00
2022-11-21T00:20:34.144Z,99609.00
2022-11-21T00:23:17.513Z,99642.00
2022-11-21T00:26:00.128Z,99632.00
2022-11-21T00:28:40.139Z,99632.00
2022-11-21T00:31:08.454Z,99564.00
2022-11-21T00:33:41.170Z,99595.00
2022-11-21T00:36:20.639Z,99631.00
2022-11-21T00:39:01.125Z,99595.00
2022-11-21T00:41:38.601Z,99588.00
2022-11-21T00:44:13.647Z,99623.00
2022-11-21T00:46:51.653Z,99599.00
2022-11-21T00:49:24.063Z,99579.00
2022-11-21T00:52:04.082Z,99611.00
2022-11-21T00:54:51.431Z,99622.00
2022-11-21T00:57:22.986Z,99578.00
2022-11-21T01:00:00.767Z,99588.00
2022-11-21T01:02:35.040Z,99616.00
2022-11-21T01:05:17.286Z,99574.00
2022-11-21T01:07:56.086Z,99595.00
2022-11-21T01:10:24.148Z,99590.00
2022-11-21T01:12:52.287Z,99617.00
2022-11-21T01:15:20.313Z,99615.00
2022-11-21T01:17:49.783Z,99604.00
2022-11-21T01:20:20.852Z,99588.00
2022-11-21T01:22:50.586Z,99586.00
2022-11-21T01:25:18.680Z,99562.00
2022-11-21T01:27:46.679Z,99571.00
2022-11-21T01:30:15.796Z,99607.00
2022-11-21T01:32:51.468Z,99573.00
2022-11-21T01:35:34.252Z,99607.00
2022-11-21T01:38:13.147Z,99569.00
2022-11-21T01:40:45.416Z,99555.00
2022-11-21T01:43:22.232Z,99602.00
2022-11-21T01:46:25.400Z,99587.00
2022-11-21T01:49:01.565Z,99561.00
2022-11-21T01:51:34.133Z,99566.00
2022-11-21T01:54:09.889Z,99601.00
2022-11-21T01:56:42.976Z,99566.00
2022-11-21T01:59:15.784Z,99576.00
2022-11-21T02:01:50.047Z,99577.00
2022-11-21T02:04:23.172Z,99620.00
2022-11-21T02:06:51.831Z,99610.00
2022-11-21T02:09:22.059Z,99573.00
2022-11-21T02:11:56.973Z,99569.00
2022-11-21T02:14:36.076Z,99565.00
2022-11-21T02:17:14.479Z,99586.00
2022-11-21T02:19:51.656Z,99607.00
2022-11-21T02:22:48.202Z,99613.00
2022-11-21T02:25:38.295Z,99600.00
2022-11-21T02:28:35.611Z,99582.00
2022-11-21T02:31:13.513Z,99627.00
2022-11-21T02:33:51.698Z,99620.00
2022-11-21T02:36:44.800Z,99630.00
2022-11-21T02:39:22.585Z,99587.00
2022-11-21T02:42:06.643Z,99609.00
2022-11-21T02:44:49.029Z,99605.00
2022-11-21T02:47:46.538Z,99621.00
2022-11-21T02:50:26.165Z,99615.00
2022-11-21T02:53:09.097Z,99632.00
2022-11-21T02:55:42.927Z,99647.00
2022-11-21T02:58:26.187Z,99630.00
2022-11-21T03:00:55.735Z,99641.00
2022-11-21T03:03:27.116Z,99646.00
2022-11-21T03:06:02.172Z,99604.00
2022-11-21T03:08:33.378Z,99598.00
2022-11-21T03:11:05.007Z,99649.00
2022-11-21T03:13:41.821Z,99625.00
2022-11-21T03:16:19.737Z,99589.00
2022-11-21T03:19:03.171Z,99645.00
2022-11-21T03:21:31.623Z,99634.00
2022-11-21T03:24:03.337Z,99594.00
2022-11-21T03:26:37.374Z,99647.00
2022-11-21T03:29:14.207Z,99643.00
2022-11-21T03:31:44.924Z,99656.00
2022-11-21T03:34:19.538Z,99604.00
2022-11-21T03:36:52.483Z,99645.00
2022-11-21T03:39:37.846Z,99653.00
2022-11-21T03:42:09.760Z,99637.00
2022-11-21T03:44:45.239Z,99644.00
2022-11-21T03:47:14.733Z,99668.00
2022-11-21T03:49:48.752Z,99634.00
2022-11-21T03:52:31.130Z,99637.00
2022-11-21T03:55:02.171Z,99675.00
2022-11-21T03:57:30.780Z,99681.00
2022-11-21T04:00:07.276Z,99657.00
2022-11-21T04:02:46.523Z,99686.00
2022-11-21T04:05:19.295Z,99646.00
2022-11-21T04:07:56.103Z,99678.00
2022-11-21T04:10:30.849Z,99648.00
2022-11-21T04:13:02.359Z,99664.00
2022-11-21T04:15:48.290Z,99679.00
2022-11-21T04:18:38.399Z,99635.00
2022-11-21T04:21:21.863Z,99684.00
2022-11-21T04:23:58.953Z,99669.00
2022-11-21T04:26:29.898Z,99672.00
2022-11-21T04:29:03.382Z,99687.00
2022-11-21T04:31:45.112Z,99702.00
2022-11-21T04:34:16.939Z,99644.00
2022-11-21T04:36:48.801Z,99684.00
2022-11-21T04:39:22.739Z,99700.00
2022-11-21T04:42:06.105Z,99685.00
2022-11-21T04:44:39.706Z,99682.00
2022-11-21T04:47:35.138Z,99683.00
2022-11-21T04:50:07.963Z,99691.00
2022-11-21T04:52:49.567Z,99647.00
2022-11-21T04:55:20.898Z,99644.00
2022-11-21T04:57:52.526Z,99687.00
2022-11-21T05:00:25.248Z,99690.00
2022-11-21T05:03:21.696Z,99700.00
2022-11-21T05:06:00.554Z,99658.00
2022-11-21T05:08:35.245Z,99693.00
2022-11-21T05:11:33.269Z,99690.00
2022-11-21T05:14:13.595Z,99656.00
2022-11-21T05:20:32.316Z,99688.00
2022-11-21T05:23:03.408Z,99693.00
2022-11-21T05:25:31.130Z,99700.00
2022-11-21T05:27:58.949Z,99689.00
2022-11-21T05:30:26.666Z,99692.00
2022-11-21T05:32:54.403Z,99699.00
2022-11-21T05:35:22.219Z,99702.00
2022-11-21T05:37:57.008Z,99705.00
2022-11-21T05:40:24.933Z,99704.00
2022-11-21T05:43:10.195Z,99710.00
2022-11-21T05:45:37.894Z,99696.00
2022-11-21T05:48:07.767Z,99706.00
2022-11-21T05:50:36.424Z,99694.00
2022-11-21T05:53:06.022Z,99687.00
2022-11-21T05:55:35.318Z,99686.00
2022-11-21T05:58:03.036Z,99690.00
2022-11-21T06:00:31.064Z,99690.00
2022-11-21T06:03:16.425Z,99689.00
2022-11-21T06:05:44.160Z,99693.00
2022-11-21T06:08:13.197Z,99686.00
2022-11-21T06:10:40.907Z,99698.00
2022-11-21T06:13:22.108Z,99691.00
2022-11-21T06:15:54.755Z,99701.00
2022-11-21T06:18:22.564Z,99692.00
2022-11-21T06:20:50.988Z,99695.00
2022-11-21T06:23:20.236Z,99701.00
2022-11-21T06:25:47.929Z,99702.00
2022-11-21T06:28:15.612Z,99699.00
2022-11-21T06:30:43.305Z,99700.00
2022-11-21T06:33:10.986Z,99701.00
2022-11-21T06:35:40.056Z,99711.00
2022-11-21T06:38:07.723Z,99700.00
2022-11-21T06:40:36.819Z,99703.00
2022-11-21T06:43:04.518Z,99708.00
2022-11-21T06:45:32.429Z,99719.00
2022-11-21T06:48:03.277Z,99715.00
2022-11-21T06:50:32.217Z,99725.00
2022-11-21T06:52:59.949Z,99729.00
2022-11-21T06:55:28.705Z,99735.00
2022-11-21T06:57:59.994Z,99727.00
2022-11-21T07:00:29.005Z,99721.00
2022-11-21T07:03:03.172Z,99724.00
2022-11-21T07:05:32.177Z,99720.00
2022-11-21T07:08:00.448Z,99730.00
2022-11-21T07:10:28.412Z,99725.00
2022-11-21T07:13:17.384Z,99736.00
2022-11-21T07:15:45.935Z,99732.00
2022-11-21T07:18:14.032Z,99742.00
2022-11-21T07:20:42.159Z,99736.00
2022-11-21T07:23:09.953Z,99750.00
2022-11-21T07:25:39.441Z,99745.00
2022-11-21T07:28:09.267Z,99749.00
2022-11-21T07:30:37.594Z,99752.00
2022-11-21T07:33:06.897Z,99756.00
2022-11-21T07:35:35.371Z,99751.00
2022-11-21T07:38:03.717Z,99748.00
2022-11-21T07:40:33.752Z,99752.00
2022-11-21T07:43:06.678Z,99754.00
2022-11-21T07:45:39.901Z,99749.00
2022-11-21T07:48:08.651Z,99744.00
2022-11-21T07:50:36.729Z,99745.00
2022-11-21T07:53:06.568Z,99754.00
2022-11-21T07:55:40.197Z,99740.00
2022-11-21T07:58:10.759Z,99741.00
2022-11-21T08:00:42.698Z,99731.00
2022-11-21T08:03:11.935Z,99732.00
2022-11-21T08:05:40.407Z,99753.00
2022-11-21T08:08:08.436Z,99744.00
2022-11-21T08:10:38.667Z,99748.00
2022-11-21T08:13:06.437Z,99741.00
2022-11-21T08:15:34.199Z,99736.00
2022-11-21T08:18:10.051Z,99737.00
2022-11-21T08:20:37.777Z,99751.00
2022-11-21T08:23:06.003Z,99745.00
2022-11-21T08:25:33.865Z,99747.00
2022-11-21T08:28:02.865Z,99748.00
2022-11-21T08:30:31.127Z,99743.00
2022-11-21T08:32:58.977Z,99735.00
2022-11-21T08:35:28.307Z,99752.00
2022-11-21T08:37:59.486Z,99743.00
2022-11-21T08:40:29.089Z,99745.00
2022-11-21T08:42:59.884Z,99741.00
2022-11-21T08:45:28.068Z,99741.00
2022-11-21T08:47:56.033Z,99744.00
2022-11-21T08:50:24.217Z,99741.00
2022-11-21T08:52:53.517Z,99739.00
2022-11-21T08:55:23.011Z,99748.00
2022-11-21T08:57:50.694Z,99736.00
2022-11-21T09:00:18.579Z,99741.00
2022-11-21T09:02:46.251Z,99739.00
2022-11-21T09:05:13.965Z,99739.00
2022-11-21T09:07:42.262Z,99743.00
2022-11-21T09:10:11.744Z,99742.00
2022-11-21T09:12:39.455Z,99744.00
2022-11-21T09:15:25.679Z,99742.00
2022-11-21T09:18:05.459Z,99738.00
2022-11-21T09:20:34.248Z,99751.00
2022-11-21T09:23:05.598Z,99752.00
2022-11-21T09:25:34.785Z,99754.00
2022-11-21T09:28:03.113Z,99752.00
2022-11-21T09:30:30.828Z,99754.00
2022-11-21T09:33:01.143Z,99761.00
2022-11-21T09:35:28.847Z,99751.00
2022-11-21T09:37:56.532Z,99750.00
2022-11-21T09:40:24.423Z,99733.00
2022-11-21T09:43:03.595Z,99731.00
2022-11-21T09:45:34.492Z,99730.00
2022-11-21T09:48:05.365Z,99720.00
2022-11-21T09:50:36.683Z,99735.00
2022-11-21T09:53:09.461Z,99726.00
2022-11-21T09:55:43.190Z,99731.00
2022-11-21T09:58:21.845Z,99725.00
2022-11-21T10:00:52.550Z,99724.00
2022-11-21T10:03:22.676Z,99729.00
2022-11-21T10:05:55.220Z,99730.00
2022-11-21T10:08:33.783Z,99725.00
2022-11-21T10:11:19.374Z,99727.00
2022-11-21T10:14:05.380Z,99728.00
2022-11-21T10:16:44.553Z,99718.00
2022-11-21T10:20:02.725Z,99724.00
2022-11-21T10:23:00.090Z,99725.00
2022-11-21T10:25:33.610Z,99714.00
2022-11-21T10:28:07.695Z,99729.00
2022-11-21T10:30:38.323Z,99702.00
2022-11-21T10:33:12.771Z,99705.00
2022-11-21T10:35:43.479Z,99718.00
2022-11-21T10:38:21.726Z,99715.00
2022-11-21T10:40:53.518Z,99711.00
2022-11-21T10:43:51.282Z,99712.00
2022-11-21T10:46:20.424Z,99703.00
2022-11-21T10:48:57.868Z,99702.00
2022-11-21T10:51:38.380Z,99707.00
2022-11-21T10:54:26.808Z,99696.00
2022-11-21T10:56:57.687Z,99694.00
2022-11-21T10:59:30.931Z,99697.00
2022-11-21T11:02:02.121Z,99701.00
2022-11-21T11:04:44.096Z,99704.00
2022-11-21T11:07:25.715Z,99686.00
2022-11-21T11:09:54.298Z,99679.00
2022-11-21T11:12:50.828Z,99689.00
2022-11-21T11:15:20.927Z,99681.00
2022-11-21T11:17:54.374Z,99684.00
2022-11-21T11:20:35.459Z,99695.00
2022-11-21T11:23:17.908Z,99664.00
2022-11-21T11:25:50.180Z,99668.00
2022-11-21T11:28:19.204Z,99678.00
2022-11-21T11:30:48.826Z,99657.00
2022-11-21T11:33:33.008Z,99654.00
2022-11-21T11:36:15.905Z,99660.00
2022-11-21T11:38:53.475Z,99658.00
2022-11-21T11:41:57.054Z,99654.00
2022-11-21T11:44:51.373Z,99649.00
2022-11-21T11:47:32.773Z,99647.00
2022-11-21T11:50:12.138Z,99627.00
2022-11-21T11:52:49.327Z,99628.00
2022-11-21T11:55:21.184Z,99631.00
2022-11-21T11:57:50.296Z,99617.00
2022-11-21T12:00:27.834Z,99599.00
2022-11-21T12:03:01.921Z,99618.00
2022-11-21T12:05:33.112Z,99615.00
2022-11-21T12:11:22.396Z,99600.00
2022-11-21T12:13:55.685Z,99594.00
2022-11-21T12:16:26.838Z,99597.00
2022-11-21T12:18:59.645Z,99601.00
2022-11-21T12:21:29.818Z,99593.00
2022-11-21T12:23:58.991Z,99600.00
2022-11-21T12:26:40.509Z,99584.00
2022-11-21T12:29:24.159Z,99592.00
2022-11-21T12:32:09.844Z,99577.00
2022-11-21T12:35:05.322Z,99573.00
2022-11-21T12:37:44.282Z,99579.00
2022-11-21T12:40:28.157Z,99577.00
2022-11-21T12:43:07.540Z,99576.00
2022-11-21T12:45:37.640Z,99567.00
2022-11-21T12:48:36.915Z,99570.00
2022-11-21T12:51:59.479Z,99567.00
2022-11-21T12:55:03.203Z,99567.00
2022-11-21T12:57:44.428Z,99566.00
2022-11-21T13:00:18.602Z,99570.00
2022-11-21T13:03:04.211Z,99550.00
2022-11-21T13:05:36.422Z,99562.00
2022-11-21T13:08:19.926Z,99542.00
2022-11-21T13:11:18.166Z,99539.00
2022-11-21T13:13:49.090Z,99544.00
2022-11-21T13:16:37.007Z,99541.00
2022-11-21T13:19:16.992Z,99534.00
2022-11-21T13:21:47.784Z,99531.00
2022-11-21T13:24:48.546Z,99531.00
2022-11-21T13:27:31.043Z,99530.00
2022-11-21T13:30:20.149Z,99523.00
2022-11-21T13:32:49.800Z,99527.00
2022-11-21T13:35:56.504Z,99517.00
2022-11-21T13:38:24.147Z,99510.00
2022-11-21T13:41:05.801Z,99523.00
2022-11-21T13:43:35.700Z,99525.00
2022-11-21T13:46:03.718Z,99519.00
2022-11-21T13:48:59.908Z,99520.00
2022-11-21T13:51:50.104Z,99518.00
2022-11-21T13:54:45.080Z,99512.00
2022-11-21T13:57:26.900Z,99515.00
2022-11-21T14:00:19.812Z,99504.00
2022-11-21T14:03:30.096Z,99522.00
2022-11-21T14:06:20.122Z,99512.00
2022-11-21T14:09:08.710Z,99501.00
2022-11-21T14:11:41.301Z,99507.00
2022-11-21T14:14:10.356Z,99497.00
2022-11-21T14:16:47.044Z,99495.00
2022-11-21T14:19:18.985Z,99499.00
2022-11-21T14:21:47.439Z,99493.00
2022-11-21T14:24:18.676Z,99498.00
2022-11-21T14:26:49.227Z,99489.00
2022-11-21T14:29:22.587Z,99494.00
2022-11-21T14:31:51.816Z,99488.00
2022-11-21T14:34:26.857Z,99480.00
2022-11-21T14:36:56.364Z,99473.00
2022-11-21T14:39:38.695Z,99483.00
2022-11-21T14:42:13.925Z,99478.00
2022-11-21T14:44:41.880Z,99471.00
2022-11-21T14:47:21.472Z,99472.00
2022-11-21T14:49:54.515Z,99463.00
2022-11-21T14:52:25.999Z,99466.00
2022-11-21T14:57:45.610Z,99460.00
2022-11-21T15:00:43.173Z,99446.00
2022-11-21T15:03:19.611Z,99452.00
2022-11-21T15:06:01.824Z,99454.00
2022-11-21T15:11:19.419Z,99451.00
2022-11-21T15:16:37.685Z,99432.00
2022-11-21T15:19:12.068Z,99418.00
2022-11-21T15:21:46.390Z,99420.00
2022-11-21T15:24:18.800Z,99413.00
2022-11-21T15:26:47.379Z,99415.00
2022-11-21T15:29:22.638Z,99406.00
2022-11-21T15:32:09.156Z,99411.00
2022-11-21T15:34:39.655Z,99397.00
2022-11-21T15:37:16.239Z,99397.00
2022-11-21T15:39:45.296Z,99394.00
2022-11-21T15:42:38.359Z,99396.00
2022-11-21T15:45:23.212Z,99398.00
2022-11-21T15:47:50.981Z,99389.00
2022-11-21T15:50:24.409Z,99385.00
2022-11-21T15:52:53.358Z,99365.00
2022-11-21T15:55:23.559Z,99366.00
2022-11-21T15:57:14.777Z,99452.00
2022-11-21T15:57:51.269Z,99369.00
2022-11-21T16:00:19.252Z,99366.00
2022-11-21T16:02:47.390Z,99369.00
2022-11-21T16:05:16.447Z,99374.00
2022-11-21T16:07:45.512Z,99373.00
2022-11-21T16:10:19.735Z,99386.00
2022-11-21T16:12:48.947Z,99379.00
2022-11-21T16:15:16.919Z,99391.00
2022-11-21T16:17:45.596Z,99384.00
2022-11-21T16:20:14.047Z,99374.00
2022-11-21T16:22:47.076Z,99373.00
2022-11-21T16:25:17.197Z,99361.00
2022-11-21T16:27:44.931Z,99361.00
2022-11-21T16:30:13.288Z,99358.00
2022-11-21T16:32:40.988Z,99357.00
2022-11-21T16:35:09.484Z,99352.00
2022-11-21T16:37:37.235Z,99356.00
2022-11-21T16:40:05.779Z,99360.00
2022-11-21T16:42:34.845Z,99363.00
2022-11-21T16:45:02.532Z,99358.00
2022-11-21T16:47:30.509Z,99352.00
2022-11-21T16:49:58.201Z,99348.00
2022-11-21T16:52:26.264Z,99346.00
2022-11-21T16:54:53.983Z,99345.00
2022-11-21T16:57:21.672Z,99347.00
2022-11-21T16:59:50.737Z,99355.00
2022-11-21T17:02:18.455Z,99335.00
2022-11-21T17:04:47.056Z,99335.00
2022-11-21T17:07:14.840Z,99320.00
2022-11-21T17:09:42.576Z,99316.00
2022-11-21T17:12:10.383Z,99313.00
2022-11-21T17:14:38.169Z,99316.00
2022-11-21T17:17:07.201Z,99295.00
2022-11-21T17:19:34.959Z,99291.00
2022-11-21T17:22:02.624Z,99288.00
2022-11-21T17:24:30.613Z,99292.00
2022-11-21T17:27:00.505Z,99287.00
2022-11-21T17:29:28.299Z,99274.00
2022-11-21T17:31:56.264Z,99266.00
2022-11-21T17:34:31.281Z,99263.00
2022-11-21T17:37:00.606Z,99258.00
2022-11-21T17:39:30.161Z,99250.00
2022-11-21T17:41:59.309Z,99244.00
2022-11-21T17:44:27.496Z,99240.00
2022-11-21T17:46:57.671Z,99241.00
2022-11-21T17:49:29.921Z,99234.00
2022-11-21T17:51:57.852Z,99235.00
2022-11-21T17:54:25.590Z,99218.00
2022-11-21T17:56:56.822Z,99229.00
2022-11-21T17:59:24.901Z,99231.00
2022-11-21T18:01:52.732Z,99213.00
2022-11-21T18:04:20.729Z,99231.00
2022-11-21T18:06:49.806Z,99228.00
2022-11-21T18:09:18.436Z,99219.00
2022-11-21T18:11:46.464Z,99209.00
2022-11-21T18:14:14.965Z,99206.00
2022-11-21T18:16:49.382Z,99199.00
2022-11-21T18:19:20.941Z,99206.00
2022-11-21T18:21:50.032Z,99194.00
2022-11-21T18:24:17.891Z,99192.00
2022-11-21T18:26:46.964Z,99196.00
2022-11-21T18:32:03.253Z,99194.00
2022-11-21T18:34:30.953Z,99171.00
2022-11-21T18:37:00.087Z,99168.00
2022-11-21T18:39:28.005Z,99167.00
2022-11-21T18:41:55.892Z,99170.00
2022-11-21T18:44:23.744Z,99170.00
2022-11-21T18:46:51.640Z,99147.00
2022-11-21T18:49:19.504Z,99151.00
2022-11-21T18:51:48.579Z,99129.00
2022-11-21T18:54:17.959Z,99156.00
2022-11-21T18:56:47.010Z,99146.00
2022-11-21T18:59:15.192Z,99143.00
2022-11-21T19:01:43.264Z,99149.00
2022-11-21T19:04:11.110Z,99146.00
2022-11-21T19:06:38.965Z,99131.00
2022-11-21T19:09:08.165Z,99138.00
2022-11-21T19:11:37.323Z,99139.00
2022-11-21T19:14:05.216Z,99134.00
2022-11-21T19:16:34.319Z,99110.00
2022-11-21T19:19:33.112Z,99125.00
2022-11-21T19:21:50.680Z,99126.00
2022-11-21T19:24:19.428Z,99120.00
2022-11-21T19:26:50.355Z,99116.00
2022-11-21T19:29:18.929Z,99103.00
2022-11-21T19:31:46.643Z,99103.00
2022-11-21T19:34:14.864Z,99093.00
2022-11-21T19:36:43.310Z,99108.00
2022-11-21T19:39:11.449Z,99120.00
2022-11-21T19:41:39.277Z,99105.00
2022-11-21T19:44:08.406Z,99106.00
2022-11-21T19:46:37.787Z,99101.00
2022-11-21T19:49:06.702Z,99101.00
2022-11-21T19:51:35.943Z,99107.00
2022-11-21T19:54:04.442Z,99098.00
2022-11-21T19:56:32.436Z,99109.00
2022-11-21T19:59:00.424Z,99101.00
2022-11-21T20:01:31.347Z,99106.00
2022-11-21T20:04:01.400Z,99114.00
2022-11-21T20:06:31.109Z,99122.00
2022-11-21T20:09:00.979Z,99134.00
2022-11-21T20:11:30.948Z,99148.00
2022-11-21T20:13:58.706Z,99143.00
2022-11-21T20:16:30.424Z,99142.00
2022-11-21T20:19:00.342Z,99170.00
2022-11-21T20:21:28.653Z,99151.00
2022-11-21T20:23:56.419Z,99148.00
2022-11-21T20:26:25.315Z,99133.00
2022-11-21T20:28:53.341Z,99135.00
2022-11-21T20:31:22.672Z,99123.00
2022-11-21T20:33:53.304Z,99127.00
2022-11-21T20:36:22.645Z,99127.00
2022-11-21T20:38:52.102Z,99123.00
2022-11-21T20:41:19.867Z,99129.00
2022-11-21T20:44:53.222Z,99128.00
2022-11-21T20:46:35.939Z,99118.00
2022-11-21T20:49:05.003Z,99107.00
2022-11-21T20:53:06.194Z,99123.00
2022-11-21T20:54:20.362Z,99120.00
2022-11-21T20:56:48.359Z,99130.00
2022-11-21T20:59:16.094Z,99125.00
2022-11-21T21:01:44.045Z,99128.00
2022-11-21T21:04:14.181Z,99127.00
2022-11-21T21:06:41.917Z,99124.00
2022-11-21T21:09:09.621Z,99129.00
2022-11-21T21:11:51.420Z,99139.00
2022-11-21T21:14:20.544Z,99125.00
2022-11-21T21:16:48.487Z,99124.00
2022-11-21T21:19:17.695Z,99132.00
2022-11-21T21:21:45.719Z,99127.00
2022-11-21T21:24:14.277Z,99127.00
2022-11-21T21:26:44.401Z,99126.00
2022-11-21T21:29:13.485Z,99115.00
2022-11-21T21:31:45.524Z,99108.00
2022-11-21T21:34:18.915Z,99110.00
2022-11-21T21:36:46.926Z,99101.00
2022-11-21T21:39:14.707Z,99103.00
2022-11-21T21:41:44.798Z,99108.00
2022-11-21T21:44:12.845Z,99106.00
2022-11-21T21:46:40.762Z,99101.00
2022-11-21T21:49:08.879Z,99102.00
2022-11-21T21:51:38.938Z,99097.00
2022-11-21T21:54:07.487Z,99097.00
2022-11-21T21:56:35.466Z,99084.00
2022-11-21T21:59:03.415Z,99087.00
2022-11-21T22:01:33.049Z,99074.00
2022-11-21T22:04:02.948Z,99087.00
2022-11-21T22:06:31.368Z,99090.00
2022-11-21T22:09:00.763Z,99087.00
2022-11-21T22:11:30.376Z,99081.00
2022-11-21T22:13:59.784Z,99068.00
2022-11-21T22:16:28.522Z,99065.00
2022-11-21T22:18:56.906Z,99064.00
2022-11-21T22:21:27.698Z,99067.00
2022-11-21T22:24:23.549Z,99067.00
2022-11-21T22:26:46.185Z,99051.00
2022-11-21T22:29:13.941Z,99050.00
2022-11-21T22:31:41.621Z,99057.00
2022-11-21T22:34:10.959Z,99047.00
2022-11-21T22:36:38.845Z,99035.00
2022-11-21T22:39:06.553Z,99037.00
2022-11-21T22:41:34.749Z,99040.00
2022-11-21T22:44:03.966Z,99020.00
2022-11-21T22:46:31.866Z,99026.00
2022-11-21T22:48:59.925Z,99016.00
2022-11-21T22:51:30.139Z,98996.00
2022-11-21T22:53:58.672Z,99007.00
2022-11-21T22:56:27.184Z,98990.00
2022-11-21T22:58:55.067Z,99004.00
2022-11-21T23:01:26.290Z,99003.00
2022-11-21T23:03:56.587Z,98999.00
2022-11-21T23:06:26.096Z,98993.00
2022-11-21T23:08:55.596Z,98985.00
2022-11-21T23:11:26.143Z,98991.00
2022-11-21T23:13:55.358Z,98987.00
2022-11-21T23:16:25.334Z,98976.00
2022-11-21T23:18:53.898Z,98988.00
2022-11-21T23:21:23.314Z,98994.00
2022-11-21T23:23:52.940Z,98985.00
2022-11-21T23:26:21.013Z,98992.00
2022-11-21T23:28:48.992Z,98986.00
2022-11-21T23:31:17.143Z,98988.00
2022-11-21T23:33:46.277Z,98984.00
2022-11-21T23:36:14.276Z,98949.00
2022-11-21T23:38:42.055Z,98982.00
2022-11-21T23:41:09.816Z,98997.00
2022-11-21T23:43:37.668Z,98998.00
2022-11-21T23:46:08.378Z,98977.00
2022-11-21T23:48:36.548Z,98985.00
2022-11-21T23:51:05.698Z,98964.00
2022-11-21T23:53:33.432Z,98970.00
2022-11-21T23:56:01.203Z,98952.00
2022-11-21T23:58:29.027Z,98959.00
